Time;durP1;ratioP1;P1;durP2;ratioP2;P2;SDS_P1;SDS_P2;PMS_P1;PMS_P2;Temp;Humidity;BMP_temperature;BMP_pressure;BME280_temperature;BME280_humidity;BME280_pressure;Samples;Min_cycle;Max_cycle;Signal;HPM_P1;HPM_P2
2021/12/12 00:01:52;;;;;;;25.60;10.18;;;;;;;3.21;95.13;101984.91;5021827;28;20036;-76
2021/12/12 00:04:21;;;;;;;25.58;9.63;;;;;;;3.20;95.22;101980.47;5018307;28;20488;-77
2021/12/12 00:06:50;;;;;;;23.30;9.73;;;;;;;3.20;94.95;101984.03;5028957;28;20022;-78
2021/12/12 00:09:24;;;;;;;21.80;9.05;;;;;;;3.27;95.02;101982.09;5029439;28;20028;-75
2021/12/12 00:11:51;;;;;;;21.35;8.77;;;;;;;3.28;95.20;101978.47;5026062;28;20033;-74
2021/12/12 00:14:25;;;;;;;21.13;8.25;;;;;;;3.27;94.94;101974.91;5020094;28;20116;-75
2021/12/12 00:16:52;;;;;;;19.83;8.65;;;;;;;3.31;95.08;101975.69;5029898;28;20053;-77
2021/12/12 00:19:18;;;;;;;18.77;8.30;;;;;;;3.32;94.85;101974.81;5026474;28;20494;-77
2021/12/12 00:21:48;;;;;;;26.45;8.55;;;;;;;3.35;94.75;101963.06;5026993;28;20036;-77
2021/12/12 00:24:14;;;;;;;20.55;7.88;;;;;;;3.38;94.89;101963.00;5024954;28;20026;-76
2021/12/12 00:26:41;;;;;;;16.58;7.63;;;;;;;3.40;94.90;101971.91;5023817;28;20116;-77
2021/12/12 00:29:08;;;;;;;16.95;7.47;;;;;;;3.39;95.03;101960.25;5018011;28;20473;-77
2021/12/12 00:31:34;;;;;;;25.67;9.25;;;;;;;3.41;94.80;101957.56;5028531;28;20030;-77
2021/12/12 00:34:01;;;;;;;21.33;8.80;;;;;;;3.45;94.74;101959.22;5022857;28;20036;-74
2021/12/12 00:36:27;;;;;;;19.08;7.57;;;;;;;3.46;94.73;101958.31;5018342;28;20021;-78
2021/12/12 00:39:16;;;;;;;19.67;8.10;;;;;;;3.47;94.72;101950.19;5028754;28;20136;-77
2021/12/12 00:41:48;;;;;;;23.60;8.35;;;;;;;3.49;94.60;101956.41;5019431;28;20100;-75
2021/12/12 00:44:15;;;;;;;22.58;7.75;;;;;;;3.51;94.56;101953.72;5008988;28;20437;-74
2021/12/12 00:46:42;;;;;;;21.45;7.30;;;;;;;3.52;94.74;101948.28;5019363;28;20037;-77
2021/12/12 00:49:09;;;;;;;19.95;7.65;;;;;;;3.56;94.58;101951.78;5018751;28;20059;-74
2021/12/12 00:51:37;;;;;;;18.70;7.20;;;;;;;3.54;94.79;101948.22;5028754;28;20021;-77
2021/12/12 00:54:05;;;;;;;14.98;6.80;;;;;;;3.57;94.85;101954.41;5028551;28;20033;-77
2021/12/12 00:56:30;;;;;;;24.95;7.35;;;;;;;3.56;94.56;101951.78;5023666;28;20479;-78
2021/12/12 00:58:57;;;;;;;19.13;7.80;;;;;;;3.58;94.47;101939.16;5023298;28;20052;-77
2021/12/12 01:01:27;;;;;;;19.75;6.88;;;;;;;3.58;94.92;101933.78;5013240;28;20026;-76
2021/12/12 01:04:14;;;;;;;17.15;7.47;;;;;;;3.61;94.78;101938.22;5023190;28;20537;-78
2021/12/12 01:06:40;;;;;;;21.42;7.97;;;;;;;3.60;94.78;101936.44;5020594;28;20092;-75
2021/12/12 01:09:10;;;;;;;21.17;7.85;;;;;;;3.59;95.08;101927.50;5028802;28;20401;-74
2021/12/12 01:11:43;;;;;;;23.52;8.18;;;;;;;3.61;95.02;101939.09;5013443;28;20029;-78
2021/12/12 01:14:12;;;;;;;18.90;7.28;;;;;;;3.58;95.01;101928.41;5021109;28;20074;-76
2021/12/12 01:16:49;;;;;;;18.13;7.15;;;;;;;3.62;95.14;101938.16;5028147;28;20110;-78
2021/12/12 01:19:30;;;;;;;17.98;8.52;;;;;;;3.63;95.28;101936.34;5026924;28;20060;-78
2021/12/12 01:21:59;;;;;;;23.75;7.07;;;;;;;3.63;95.10;101933.66;5026981;28;20087;-77
2021/12/12 01:24:32;;;;;;;16.65;6.43;;;;;;;3.64;95.11;101935.41;5027682;28;20021;-75
2021/12/12 01:26:59;;;;;;;;;;;;;;;3.66;94.70;101931.78;5025834;28;20037;-78
2021/12/12 01:29:25;;;;;;;23.65;7.80;;;;;;;3.66;95.23;101938.97;5027087;28;20407;-76
2021/12/12 01:31:52;;;;;;;23.42;7.25;;;;;;;3.66;94.88;101934.47;5025875;28;20473;-74
2021/12/12 01:34:25;;;;;;;23.35;7.07;;;;;;;3.68;95.35;101932.59;5018779;28;20060;-77
2021/12/12 01:39:35;;;;;;;23.73;7.28;;;;;;;3.69;95.38;101937.09;5027517;28;20120;-79
2021/12/12 01:42:09;;;;;;;20.52;8.10;;;;;;;3.70;95.27;101933.47;5024537;28;20200;-76
2021/12/12 01:44:44;;;;;;;15.35;6.88;;;;;;;3.69;95.45;101922.75;5027422;28;20037;-78
2021/12/12 01:47:18;;;;;;;21.65;7.38;;;;;;;3.71;94.99;101923.59;5017223;28;20025;-76
2021/12/12 01:49:47;;;;;;;24.63;7.75;;;;;;;3.72;95.71;101936.97;5023078;28;20035;-76
2021/12/12 01:52:16;;;;;;;21.92;7.97;;;;;;;3.75;95.50;101930.66;5028468;28;20063;-74
2021/12/12 01:54:47;;;;;;;19.58;7.88;;;;;;;3.74;95.29;101932.47;5017855;28;20033;-77
2021/12/12 01:57:18;;;;;;;15.13;7.68;;;;;;;3.77;95.63;101923.41;5022592;28;20025;-77
2021/12/12 01:59:46;;;;;;;22.13;8.00;;;;;;;3.78;95.72;101915.31;5012875;28;20056;-77
2021/12/12 02:02:19;;;;;;;18.92;8.02;;;;;;;3.73;95.69;101914.56;5026213;28;20029;-77
2021/12/12 02:04:49;;;;;;;19.77;7.70;;;;;;;3.80;95.51;101923.34;5026707;28;20029;-76
2021/12/12 02:07:21;;;;;;;24.33;7.68;;;;;;;3.81;95.61;101925.09;5022472;28;20030;-74
2021/12/12 02:09:48;;;;;;;19.52;8.20;;;;;;;3.82;95.80;101919.69;5026805;28;20036;-77
2021/12/12 02:12:13;;;;;;;25.17;7.40;;;;;;;3.81;95.75;101917.91;5026067;28;20025;-77
2021/12/12 02:14:41;;;;;;;26.35;7.63;;;;;;;3.85;95.76;101924.09;5013970;28;20033;-77
2021/12/12 02:17:14;;;;;;;16.63;7.65;;;;;;;3.86;95.98;101915.09;5027080;28;20115;-74
2021/12/12 02:23:14;;;;;;;26.40;7.40;;;;;;;3.90;95.67;101905.13;5027830;28;20041;-76
2021/12/12 02:36:17;;;;;;;19.23;7.38;;;;;;;3.97;96.07;101918.38;5019524;28;20515;-78
2021/12/12 02:38:43;;;;;;;23.17;8.73;;;;;;;4.01;95.98;101913.78;5024081;28;20021;-77
2021/12/12 02:41:12;;;;;;;22.88;7.68;;;;;;;4.00;96.10;101904.81;5027068;28;20397;-77
2021/12/12 02:43:45;;;;;;;21.52;7.20;;;;;;;4.02;96.14;101896.72;5011220;28;20034;-77
2021/12/12 02:46:14;;;;;;;;;;;;;;;4.06;95.88;101884.94;5027760;28;20029;-76
2021/12/12 02:48:42;;;;;;;24.83;6.72;;;;;;;4.07;96.06;101884.00;5024667;28;19928;-78
2021/12/12 02:51:15;;;;;;;17.20;6.82;;;;;;;4.06;96.29;101869.66;5027778;28;20025;-74
2021/12/12 02:53:54;;;;;;;29.15;7.70;;;;;;;4.08;96.47;101869.59;5025814;28;20041;-77
2021/12/12 02:56:26;;;;;;;18.75;6.80;;;;;;;4.12;96.79;101873.09;5024086;28;20093;-78
2021/12/12 02:58:52;;;;;;;21.58;6.68;;;;;;;4.12;96.48;101886.56;5027615;28;20025;-77
2021/12/12 03:01:43;;;;;;;22.30;7.15;;;;;;;4.14;96.60;101879.31;5026259;28;20431;-76
2021/12/12 03:04:09;;;;;;;21.27;7.35;;;;;;;4.15;96.38;101887.38;5008311;28;20042;-77
2021/12/12 03:06:37;;;;;;;19.90;7.57;;;;;;;4.16;96.81;101877.47;5021153;28;20044;-78
2021/12/12 03:09:11;;;;;;;18.30;6.18;;;;;;;4.19;96.67;101886.31;5026734;28;20562;-78
2021/12/12 03:11:36;;;;;;;23.60;6.72;;;;;;;4.20;96.71;101885.41;5027548;28;20037;-75
2021/12/12 03:14:02;;;;;;;21.23;7.13;;;;;;;4.20;96.88;101877.34;5025958;28;20033;-74
2021/12/12 03:16:29;;;;;;;30.13;7.07;;;;;;;4.24;96.55;101880.78;5026284;28;20029;-78
2021/12/12 03:18:55;;;;;;;18.00;8.02;;;;;;;4.25;96.82;101877.19;5024666;28;20327;-78
2021/12/12 03:21:30;;;;;;;17.38;7.50;;;;;;;4.28;96.77;101875.28;5025808;28;20029;-75
2021/12/12 03:23:58;;;;;;;26.42;9.70;;;;;;;4.30;96.77;101865.34;5025454;28;20033;-74
2021/12/12 03:26:24;;;;;;;18.63;7.28;;;;;;;4.33;96.82;101867.94;5027123;28;20032;-74
2021/12/12 03:28:54;;;;;;;17.67;7.40;;;;;;;4.32;96.85;101855.41;5025220;28;20064;-76
2021/12/12 03:31:24;;;;;;;17.38;7.13;;;;;;;4.36;96.75;101845.44;5026552;28;20517;-77
2021/12/12 03:33:50;;;;;;;20.70;7.78;;;;;;;4.37;96.69;101849.00;5023946;28;20432;-77
2021/12/12 03:36:17;;;;;;;24.05;8.90;;;;;;;4.37;97.09;101846.31;5040166;28;20036;-75
2021/12/12 03:38:51;;;;;;;19.88;8.48;;;;;;;4.34;97.01;101844.59;5044870;28;20055;-77
2021/12/12 03:41:22;;;;;;;25.98;9.85;;;;;;;4.38;97.10;101845.38;5029764;28;20106;-75
2021/12/12 03:43:53;;;;;;;28.60;9.27;;;;;;;4.39;97.01;101849.84;5011690;28;20124;-77
2021/12/12 03:46:20;;;;;;;24.55;8.32;;;;;;;4.41;97.13;101854.25;5028698;28;20022;-77
2021/12/12 03:48:45;;;;;;;21.83;8.38;;;;;;;4.42;97.33;101845.22;5028640;28;20030;-75
2021/12/12 03:51:14;;;;;;;22.23;8.70;;;;;;;4.41;97.13;101834.50;5026083;28;20041;-74
2021/12/12 03:53:40;;;;;;;23.10;8.15;;;;;;;4.42;97.43;101849.72;5014025;28;20060;-76
2021/12/12 03:56:08;;;;;;;21.77;9.55;;;;;;;4.41;97.29;101842.59;5028644;28;20029;-77
2021/12/12 03:58:34;;;;;;;22.95;9.52;;;;;;;4.43;97.66;101841.63;5028937;28;20075;-76
2021/12/12 04:01:06;;;;;;;19.75;8.40;;;;;;;4.45;97.34;101845.16;5027349;28;20393;-74
2021/12/12 04:03:32;;;;;;;20.95;9.68;;;;;;;4.48;97.46;101853.13;5024880;28;20022;-75
2021/12/12 04:06:01;;;;;;;19.48;8.50;;;;;;;4.50;97.62;101853.09;5025241;28;20121;-77
2021/12/12 04:08:29;;;;;;;24.40;8.82;;;;;;;4.51;97.44;101846.75;5025734;28;20032;-78
2021/12/12 04:10:54;;;;;;;20.90;10.88;;;;;;;4.49;97.59;101846.81;5029897;28;20029;-75
2021/12/12 04:13:20;;;;;;;19.85;8.90;;;;;;;4.53;97.31;101850.31;5044077;28;20519;-75
2021/12/12 04:15:54;;;;;;;19.55;8.30;;;;;;;4.56;97.51;101853.75;5026775;28;20160;-76
2021/12/12 04:18:21;;;;;;;16.17;8.35;;;;;;;4.55;97.55;101852.00;5028684;28;20021;-77
2021/12/12 04:20:47;;;;;;;17.13;7.88;;;;;;;4.58;97.33;101856.44;5018155;28;20040;-73
2021/12/12 04:23:19;;;;;;;22.73;8.65;;;;;;;4.60;97.78;101851.84;5028369;28;20481;-75
2021/12/12 04:25:45;;;;;;;19.37;7.93;;;;;;;4.60;97.74;101858.13;5027725;28;20477;-74
2021/12/12 04:28:11;;;;;;;18.77;7.85;;;;;;;4.61;97.56;101854.50;5027839;28;20345;-76
2021/12/12 04:30:37;;;;;;;13.50;7.60;;;;;;;4.64;97.79;101847.25;5026694;28;20017;-76
2021/12/12 04:33:02;;;;;;;16.10;7.07;;;;;;;4.65;97.65;101851.72;5028909;28;20404;-76
2021/12/12 04:35:28;;;;;;;22.30;7.57;;;;;;;4.69;98.31;101861.47;5025924;28;20040;-76
2021/12/12 04:37:55;;;;;;;21.25;8.25;;;;;;;4.70;97.59;101849.75;5029835;28;20389;-76
2021/12/12 04:40:25;;;;;;;20.88;7.60;;;;;;;4.69;98.07;101845.31;5029359;28;20057;-77
2021/12/12 04:42:53;;;;;;;19.10;7.13;;;;;;;4.72;97.46;101840.69;5017228;28;20034;-77
2021/12/12 04:46:03;;;;;;;11.93;6.53;;;;;;;4.73;97.73;101850.53;5025019;28;20446;-77
2021/12/12 04:51:41;;;;;;;15.52;7.00;;;;;;;4.77;97.69;101854.91;5028834;28;20048;-77
2021/12/12 04:54:27;;;;;;;17.65;7.43;;;;;;;4.78;97.65;101851.28;5024958;28;20036;-77
2021/12/12 04:56:59;;;;;;;15.20;6.53;;;;;;;4.78;97.64;101851.28;5029657;28;20082;-77
2021/12/12 04:59:48;;;;;;;10.50;6.10;;;;;;;4.83;97.46;101857.41;5024424;28;20040;-76
2021/12/12 05:02:18;;;;;;;15.80;7.93;;;;;;;4.82;97.53;101857.47;5028615;28;20032;-77
2021/12/12 05:04:54;;;;;;;14.52;6.63;;;;;;;4.85;97.91;101860.06;5021011;28;20030;-77
2021/12/12 05:07:25;;;;;;;15.68;6.63;;;;;;;4.86;97.86;101860.00;5029894;28;20056;-76
2021/12/12 05:09:58;;;;;;;15.32;6.43;;;;;;;4.85;97.62;101866.34;5027480;28;20599;-79
2021/12/12 05:12:30;;;;;;;17.80;7.07;;;;;;;4.89;97.65;101877.00;5028020;28;20036;-76
2021/12/12 05:14:59;;;;;;;17.88;7.28;;;;;;;4.89;nan;101871.59;5014509;28;20033;-76
2021/12/12 05:17:37;;;;;;;17.33;7.25;;;;;;;4.88;97.79;101878.81;5025551;28;20032;-75
2021/12/12 05:20:09;;;;;;;11.32;6.75;;;;;;;4.92;97.66;101880.50;5010720;28;20021;-75
2021/12/12 05:22:38;;;;;;;15.50;7.50;;;;;;;4.93;97.64;101874.16;5015584;28;20029;-73
2021/12/12 05:25:09;;;;;;;9.68;6.05;;;;;;;4.95;98.01;101876.81;5016448;28;20045;-77
2021/12/12 05:27:37;;;;;;;9.77;6.25;;;;;;;4.94;97.86;101866.94;5021361;28;20026;-74
2021/12/12 05:30:11;;;;;;;12.10;6.75;;;;;;;4.98;97.67;101871.31;5011976;28;20091;-74
2021/12/12 05:32:37;;;;;;;15.45;6.45;;;;;;;4.97;97.87;101864.16;5021046;28;20371;-78
2021/12/12 05:35:07;;;;;;;11.32;6.40;;;;;;;4.99;97.95;101859.59;5017789;28;20032;-75
2021/12/12 05:37:34;;;;;;;14.82;7.57;;;;;;;5.02;97.85;101876.56;5016713;28;20033;-76
2021/12/12 05:40:04;;;;;;;13.32;6.40;;;;;;;5.01;98.10;101872.09;5011637;28;20053;-74
2021/12/12 05:42:31;;;;;;;9.63;6.63;;;;;;;5.03;97.95;101874.72;5022304;28;20378;-76
2021/12/12 05:44:59;;;;;;;14.68;6.80;;;;;;;5.04;97.99;101879.22;5024433;28;20104;-76
2021/12/12 05:47:24;;;;;;;11.70;6.97;;;;;;;5.06;98.24;101877.34;5014736;28;20575;-76
2021/12/12 05:49:50;;;;;;;9.90;6.32;;;;;;;5.08;98.21;101883.56;5016817;28;20084;-76
2021/12/12 05:52:19;;;;;;;10.40;6.28;;;;;;;5.08;97.91;101886.25;5026382;28;20195;-74
2021/12/12 05:54:46;;;;;;;12.63;6.35;;;;;;;5.08;98.00;101883.56;5018734;28;20051;-75
2021/12/12 05:57:13;;;;;;;11.88;6.13;;;;;;;5.12;98.13;101893.31;5026429;28;20445;-76
2021/12/12 05:59:39;;;;;;;17.45;7.03;;;;;;;5.14;97.97;101890.59;5012888;28;20029;-76
2021/12/12 06:02:06;;;;;;;12.45;6.80;;;;;;;5.17;98.13;101887.75;5012566;28;20038;-77
2021/12/12 06:04:33;;;;;;;13.48;6.43;;;;;;;5.19;97.87;101891.31;5008917;28;20033;-75
2021/12/12 06:06:58;;;;;;;12.40;7.13;;;;;;;5.22;98.10;101891.19;5008446;28;20040;-76
2021/12/12 06:09:24;;;;;;;12.13;7.28;;;;;;;5.23;98.17;101896.56;5026372;28;20017;-76
2021/12/12 06:11:52;;;;;;;14.57;6.45;;;;;;;5.23;98.20;101893.84;5026738;28;20029;-77
2021/12/12 06:14:19;;;;;;;8.55;6.20;;;;;;;5.26;97.90;101899.13;5014406;28;20482;-77
2021/12/12 06:16:45;;;;;;;10.32;6.18;;;;;;;5.27;98.07;101900.00;5025785;28;20033;-76
2021/12/12 06:19:13;;;;;;;13.25;7.28;;;;;;;5.31;97.96;101915.16;5024245;28;20060;-76
2021/12/12 06:21:41;;;;;;;12.20;6.93;;;;;;;5.32;98.03;101909.75;5026880;28;20021;-77
2021/12/12 06:24:07;;;;;;;11.95;7.38;;;;;;;5.36;98.16;101907.78;5020672;28;20048;-76
2021/12/12 06:26:33;;;;;;;13.68;7.00;;;;;;;5.36;97.73;101914.09;5024986;28;20025;-75
2021/12/12 06:28:59;;;;;;;13.90;7.15;;;;;;;5.38;98.22;101901.44;5018460;28;20038;-76
2021/12/12 06:31:25;;;;;;;17.90;7.93;;;;;;;5.39;98.21;101913.09;5023045;28;20048;-75
2021/12/12 06:33:50;;;;;;;13.05;7.82;;;;;;;5.42;98.23;101904.91;5023423;28;20084;-76
2021/12/12 06:36:16;;;;;;;15.10;7.22;;;;;;;5.43;98.29;101900.38;5021269;28;20470;-77
2021/12/12 06:38:47;;;;;;;13.90;7.53;;;;;;;5.45;98.22;101909.31;5026655;28;20017;-76
2021/12/12 06:41:14;;;;;;;17.75;7.97;;;;;;;5.45;98.11;101912.88;5019805;28;20410;-76
2021/12/12 06:43:42;;;;;;;17.75;7.63;;;;;;;5.45;97.88;101910.19;5012015;28;20033;-76
2021/12/12 06:46:08;;;;;;;12.10;7.65;;;;;;;5.50;98.05;101913.63;5026552;28;20112;-76
2021/12/12 06:48:34;;;;;;;11.82;7.25;;;;;;;5.52;98.05;101908.19;5025375;28;20026;-75
2021/12/12 06:51:01;;;;;;;13.23;7.72;;;;;;;5.53;98.17;101909.94;5027013;28;20044;-74
2021/12/12 06:53:29;;;;;;;18.70;9.00;;;;;;;5.53;98.01;101908.09;5026824;28;20033;-73
2021/12/12 06:55:56;;;;;;;18.83;9.52;;;;;;;5.58;98.00;101918.75;5014466;28;20542;-77
2021/12/12 06:58:24;;;;;;;17.05;8.93;;;;;;;5.61;98.29;101918.66;5023112;28;20025;-77
2021/12/12 07:00:54;;;;;;;17.20;8.68;;;;;;;5.59;98.23;101924.09;5026689;28;20026;-77
2021/12/12 07:03:20;;;;;;;17.75;9.32;;;;;;;5.63;97.98;101920.34;5026511;28;20204;-74
2021/12/12 07:05:47;;;;;;;14.95;8.63;;;;;;;5.65;98.23;101919.44;5017543;28;20033;-75
2021/12/12 07:08:16;;;;;;;18.80;9.02;;;;;;;5.68;98.07;101919.31;5027442;28;20025;-76
2021/12/12 07:10:43;;;;;;;17.60;9.15;;;;;;;5.69;98.14;101905.78;5024186;28;20087;-78
2021/12/12 08:50:38;;;;;;;36.33;15.35;;;;;;;6.39;99.66;101991.53;5116006;27;20810;-78
2021/12/12 08:53:05;;;;;;;30.35;12.95;;;;;;;6.44;99.53;101996.78;5103067;28;20478;-75
2021/12/12 08:55:36;;;;;;;28.65;12.52;;;;;;;6.46;98.87;101993.06;5095904;28;20016;-79
2021/12/12 08:58:14;;;;;;;24.33;12.75;;;;;;;6.51;99.17;102004.59;5085109;28;20023;-77
2021/12/12 09:00:53;;;;;;;33.45;11.60;;;;;;;6.55;99.21;102002.66;5099579;28;20539;-77
2021/12/12 09:03:50;;;;;;;33.35;13.48;;;;;;;6.56;98.75;102002.59;5091085;28;20024;-77
2021/12/12 09:06:19;;;;;;;26.98;12.32;;;;;;;6.58;98.88;101991.75;5076755;28;20039;-76
2021/12/12 09:08:52;;;;;;;21.65;12.27;;;;;;;6.58;98.82;102003.44;5092713;28;20040;-77
2021/12/12 09:11:27;;;;;;;24.15;11.95;;;;;;;6.60;98.85;102001.53;5091768;28;20426;-76
2021/12/12 09:13:58;;;;;;;25.77;10.60;;;;;;;6.60;98.49;102009.66;5070668;28;20044;-76
2021/12/12 09:16:30;;;;;;;25.92;12.18;;;;;;;6.67;98.66;102017.53;5083727;28;20028;-78
2021/12/12 09:19:03;;;;;;;26.13;13.48;;;;;;;6.69;98.80;102024.66;5087427;28;20483;-76
2021/12/12 09:21:53;;;;;;;28.13;11.23;;;;;;;6.71;98.45;102028.16;5096202;28;20082;-77
2021/12/12 09:24:31;;;;;;;27.58;11.27;;;;;;;6.71;98.57;102030.88;5095837;28;20036;-79
2021/12/12 09:27:06;;;;;;;24.77;11.55;;;;;;;6.72;98.76;102029.97;5086676;28;20034;-75
2021/12/12 09:29:50;;;;;;;24.75;12.00;;;;;;;6.71;98.74;102028.16;5086788;28;20131;-77
2021/12/12 09:32:49;;;;;;;24.80;11.27;;;;;;;6.75;98.53;102037.94;5089352;28;20032;-76
2021/12/12 09:35:33;;;;;;;29.80;11.70;;;;;;;6.74;98.54;102036.19;5089297;28;20133;-76
2021/12/12 09:38:09;;;;;;;27.17;11.05;;;;;;;6.78;98.26;102040.53;5093160;28;20165;-79
2021/12/12 09:40:46;;;;;;;23.83;11.98;;;;;;;6.78;98.60;102036.97;5089318;28;20052;-79
2021/12/12 09:43:12;;;;;;;20.95;10.55;;;;;;;6.85;98.79;102052.00;5076232;28;20086;-77
2021/12/12 09:45:37;;;;;;;23.25;9.85;;;;;;;6.87;98.38;102050.13;5080778;28;20059;-77
2021/12/12 09:51:40;;;;;;;25.50;11.38;;;;;;;6.89;98.63;102054.53;5070723;28;20450;-74
2021/12/12 09:54:32;;;;;;;24.63;10.80;;;;;;;6.92;98.46;102056.25;5081126;28;20039;-76
2021/12/12 09:57:06;;;;;;;22.80;9.65;;;;;;;6.96;98.84;102057.91;5077562;28;20051;-78
2021/12/12 09:59:44;;;;;;;20.40;10.77;;;;;;;6.99;98.73;102049.66;5075378;28;20036;-73
2021/12/12 10:02:24;;;;;;;21.88;10.55;;;;;;;7.03;98.57;102053.13;5079840;28;20035;-76
2021/12/12 10:05:17;;;;;;;26.05;10.68;;;;;;;7.03;98.26;102051.31;5079566;28;20249;-72
2021/12/12 10:07:50;;;;;;;;;;;;;;;7.08;98.53;102053.84;5070963;28;20016;-76
2021/12/12 10:10:28;;;;;;;25.23;10.25;;;;;;;7.08;98.45;102053.84;5080011;28;19916;-78
2021/12/12 10:13:24;;;;;;;24.70;11.57;;;;;;;7.10;98.88;102055.56;5081031;28;20060;-74
2021/12/12 10:15:56;;;;;;;30.20;10.80;;;;;;;7.12;98.82;102050.06;5073335;28;20093;-75
2021/12/12 10:18:29;;;;;;;20.92;10.85;;;;;;;7.16;98.66;102047.19;5037111;28;20056;-78
2021/12/12 10:21:01;;;;;;;20.40;10.68;;;;;;;7.18;98.42;102043.53;5072416;28;20487;-78
2021/12/12 10:23:42;;;;;;;24.90;11.68;;;;;;;7.20;98.45;102041.66;5076752;28;20019;-76
2021/12/12 10:26:42;;;;;;;25.00;9.85;;;;;;;7.24;98.70;102048.72;5076302;28;20384;-78
2021/12/12 10:29:09;;;;;;;19.65;10.13;;;;;;;7.24;98.60;102046.91;5082893;28;20043;-76
2021/12/12 10:31:47;;;;;;;30.38;11.30;;;;;;;7.29;98.16;102054.84;5084125;28;20024;-78
2021/12/12 10:34:27;;;;;;;22.70;11.52;;;;;;;7.30;98.68;102057.47;5093163;28;20099;-75
2021/12/12 10:37:21;;;;;;;18.88;10.30;;;;;;;7.29;98.41;102054.84;5081140;28;20024;-74
2021/12/12 10:40:09;;;;;;;19.55;10.60;;;;;;;7.27;nan;102041.34;5087035;28;20037;-74
2021/12/12 10:42:48;;;;;;;25.25;11.20;;;;;;;7.32;98.14;102044.78;5086383;28;20032;-75
2021/12/12 10:45:22;;;;;;;25.55;10.98;;;;;;;7.34;98.58;102052.81;5083589;28;20024;-73
2021/12/12 10:48:07;;;;;;;20.45;10.93;;;;;;;7.36;98.26;102057.22;5085147;28;20066;-77
2021/12/12 10:50:42;;;;;;;23.85;11.15;;;;;;;7.38;98.58;102057.19;5076931;28;20117;-77
2021/12/12 10:53:20;;;;;;;19.83;11.18;;;;;;;7.40;98.24;102058.00;5067263;28;20168;-78
2021/12/12 10:55:58;;;;;;;24.55;12.15;;;;;;;7.43;98.64;102057.00;5070515;28;20035;-74
2021/12/12 10:58:33;;;;;;;21.13;10.80;;;;;;;7.46;98.37;102051.44;5076062;28;20024;-78
2021/12/12 11:01:10;;;;;;;23.10;11.20;;;;;;;7.48;98.58;102058.56;5076384;28;20032;-77
2021/12/12 11:03:42;;;;;;;28.15;11.63;;;;;;;7.49;98.64;102051.31;5082542;28;20024;-78
2021/12/12 11:06:27;;;;;;;21.63;11.18;;;;;;;7.52;97.95;102057.50;5076686;28;20063;-80
2021/12/12 11:09:01;;;;;;;23.23;12.48;;;;;;;7.54;98.45;102050.19;5075202;28;20039;-76
2021/12/12 11:11:55;;;;;;;22.92;10.88;;;;;;;7.59;98.41;102059.00;5084924;28;20039;-77
2021/12/12 11:14:30;;;;;;;22.55;10.88;;;;;;;7.65;98.11;102055.19;5084152;28;20027;-76
2021/12/12 11:17:11;;;;;;;23.15;11.35;;;;;;;7.71;98.56;102054.06;5086254;28;20422;-76
2021/12/12 11:20:06;;;;;;;25.38;11.40;;;;;;;7.76;98.09;102054.75;5079993;28;20077;-79
2021/12/12 11:22:42;;;;;;;22.95;10.10;;;;;;;7.79;98.03;102043.78;5052141;28;20173;-77
2021/12/12 11:25:13;;;;;;;23.63;11.10;;;;;;;7.81;98.21;102050.00;5075456;28;20032;-78
2021/12/12 11:27:46;;;;;;;20.20;9.82;;;;;;;7.82;97.80;102052.66;5078126;28;20032;-76
2021/12/12 11:30:26;;;;;;;20.02;9.93;;;;;;;7.82;98.03;102039.09;5072562;28;20119;-76
2021/12/12 11:32:54;;;;;;;16.13;9.90;;;;;;;7.84;98.04;102047.19;5069459;28;20456;-77
2021/12/12 11:35:22;;;;;;;17.30;10.32;;;;;;;7.86;97.96;102043.44;5075130;28;20038;-79
2021/12/12 11:37:57;;;;;;;21.58;11.15;;;;;;;7.87;97.97;102047.03;5069865;28;20031;-79
2021/12/12 11:40:29;;;;;;;17.60;8.60;;;;;;;7.87;97.91;102050.63;5077565;28;20051;-75
2021/12/12 11:43:17;;;;;;;18.70;10.43;;;;;;;7.91;97.91;102054.97;5086349;28;20387;-74
2021/12/12 11:45:47;;;;;;;15.23;9.73;;;;;;;7.91;98.09;102045.97;5070018;28;20028;-78
2021/12/12 11:48:47;;;;;;;22.45;9.98;;;;;;;7.95;98.21;102053.03;5072291;28;20386;-78
2021/12/12 11:51:17;;;;;;;15.95;8.93;;;;;;;7.95;97.99;102050.31;5073657;28;20119;-78
2021/12/12 11:53:52;;;;;;;17.88;8.90;;;;;;;7.98;97.76;102043.91;5083012;28;20062;-80
2021/12/12 11:56:34;;;;;;;18.00;8.45;;;;;;;7.98;97.95;102042.06;5079088;28;20039;-79
2021/12/12 11:59:07;;;;;;;17.17;9.40;;;;;;;8.01;97.69;102052.75;5076389;28;20051;-78
2021/12/12 12:01:38;;;;;;;;;;;;;;;8.04;97.75;102051.75;5085589;28;20044;-77
2021/12/12 12:04:13;;;;;;;13.60;8.32;;;;;;;8.07;98.03;102046.22;5081694;28;20355;-76
2021/12/12 12:07:11;;;;;;;17.85;8.75;;;;;;;8.12;97.85;102046.91;5080021;28;20068;-77
2021/12/12 12:10:00;;;;;;;20.02;8.80;;;;;;;8.12;97.79;102050.50;5075994;28;20489;-76
2021/12/12 12:12:47;;;;;;;15.35;9.23;;;;;;;8.14;97.56;102054.00;5084936;28;20432;-80
2021/12/12 12:15:59;;;;;;;15.48;9.48;;;;;;;8.16;97.72;102060.25;5075817;28;20038;-79
2021/12/12 12:18:34;;;;;;;14.47;9.23;;;;;;;8.18;97.93;102069.19;5070871;28;20052;-77
2021/12/12 12:21:32;;;;;;;15.30;9.20;;;;;;;8.18;97.64;102066.47;5071994;28;20342;-78
2021/12/12 12:24:55;;;;;;;14.43;7.95;;;;;;;8.22;97.89;102075.38;5075185;28;20038;-74
2021/12/12 12:27:30;;;;;;;17.67;8.40;;;;;;;8.23;97.91;102069.00;5035651;28;20510;-78
2021/12/12 12:30:04;;;;;;;17.83;8.80;;;;;;;8.25;97.69;102077.94;5077173;28;20142;-78
2021/12/12 12:33:08;;;;;;;16.10;8.40;;;;;;;8.29;97.58;102073.25;5077340;28;20024;-77
2021/12/12 12:36:12;;;;;;;16.17;8.00;;;;;;;8.31;97.93;102072.25;5057116;28;20032;-76
2021/12/12 12:39:13;;;;;;;18.02;8.40;;;;;;;8.32;97.60;102078.56;5078838;28;20028;-79
2021/12/12 12:42:11;;;;;;;13.13;8.88;;;;;;;8.34;97.67;102073.94;5000185;28;20038;-78
2021/12/12 12:45:14;;;;;;;13.70;8.57;;;;;;;8.35;98.13;102062.19;5072353;28;20039;-78
2021/12/12 12:48:17;;;;;;;16.77;8.48;;;;;;;8.37;97.67;102073.84;5071697;28;20035;-77
2021/12/12 12:51:09;;;;;;;17.52;9.00;;;;;;;8.38;97.72;102075.63;5068071;28;20113;-79
2021/12/12 12:54:02;;;;;;;13.88;8.35;;;;;;;8.38;98.08;102075.63;5088646;28;20111;-77
2021/12/12 12:56:49;;;;;;;13.55;8.68;;;;;;;8.37;97.57;102082.88;5075553;28;20052;-78
2021/12/12 12:59:48;;;;;;;15.63;9.10;;;;;;;8.37;98.05;102085.59;5075240;28;20018;-78
2021/12/12 13:02:18;;;;;;;13.85;8.90;;;;;;;8.37;97.65;102091.00;5077750;28;20039;-74
2021/12/12 13:04:59;;;;;;;15.60;9.32;;;;;;;8.40;98.03;102090.00;5073889;28;20031;-78
2021/12/12 13:08:10;;;;;;;20.88;11.07;;;;;;;8.42;97.90;102088.09;5074013;28;20031;-78
2021/12/12 13:10:38;;;;;;;17.60;9.15;;;;;;;8.41;98.19;102080.91;5075798;28;20024;-74
2021/12/12 13:13:13;;;;;;;18.90;9.88;;;;;;;8.42;97.99;102088.09;5079962;28;20101;-77
2021/12/12 13:16:07;;;;;;;19.80;10.15;;;;;;;8.41;98.21;102081.78;5076645;28;20151;-77
2021/12/12 13:18:58;;;;;;;17.05;10.02;;;;;;;8.41;97.93;102084.50;5065226;28;20021;-75
2021/12/12 13:21:40;;;;;;;19.65;9.70;;;;;;;8.41;98.00;102079.06;5078725;28;20043;-74
2021/12/12 13:24:22;;;;;;;19.30;9.93;;;;;;;8.41;97.93;102081.78;5073439;28;20553;-75
2021/12/12 13:30:13;;;;;;;16.08;9.02;;;;;;;8.42;97.84;102090.81;5065261;28;20039;-76
2021/12/12 13:33:04;;;;;;;19.52;9.52;;;;;;;8.43;98.27;102095.28;5076522;28;20024;-77
2021/12/12 13:35:36;;;;;;;15.10;9.45;;;;;;;8.41;98.16;102098.06;5076347;28;20020;-74
2021/12/12 13:38:22;;;;;;;18.65;10.20;;;;;;;8.43;97.83;102100.69;5073572;28;20032;-76
2021/12/12 13:41:45;;;;;;;18.40;10.30;;;;;;;8.41;97.82;102097.19;5073806;28;20039;-76
2021/12/12 13:44:35;;;;;;;15.63;9.60;;;;;;;8.41;98.16;102108.03;4983291;28;20121;-75
2021/12/12 13:47:16;;;;;;;16.52;9.77;;;;;;;8.40;98.13;102106.28;4980365;28;20042;-79
2021/12/12 13:50:03;;;;;;;16.27;9.60;;;;;;;8.41;98.20;102106.19;5058771;28;20056;-76
2021/12/12 13:52:38;;;;;;;17.95;9.90;;;;;;;8.41;98.31;102106.19;5080588;28;20446;-78
2021/12/12 13:55:12;;;;;;;17.25;10.40;;;;;;;8.41;98.13;102106.19;5075442;28;20024;-76
2021/12/12 13:57:51;;;;;;;16.73;10.35;;;;;;;8.42;98.16;102107.94;5082940;28;20344;-75
2021/12/12 14:00:19;;;;;;;16.52;10.02;;;;;;;8.42;98.35;102113.38;5075432;28;20015;-76
2021/12/12 14:02:56;;;;;;;16.90;9.68;;;;;;;8.43;98.32;102109.72;5080682;28;20020;-78